Time;durP1;ratioP1;P1;durP2;ratioP2;P2;SDS_P1;SDS_P2;PMS_P1;PMS_P2;Temp;Humidity;BMP_temperature;BMP_pressure;BME280_temperature;BME280_humidity;BME280_pressure;Samples;Min_cycle;Max_cycle;Signal;HPM_P1;HPM_P2
2023/06/07 00:00:08;;;;;;;4.37;4.03;;;17.40;99.90;;;;;;5113496;28;20164;-71
2023/06/07 00:02:34;;;;;;;6.80;4.40;;;17.50;99.90;;;;;;5113563;28;20195;-71
2023/06/07 00:04:59;;;;;;;5.37;4.70;;;17.30;99.90;;;;;;5113589;28;20553;-71
2023/06/07 00:07:25;;;;;;;4.53;4.13;;;17.30;99.90;;;;;;5113968;28;20210;-72
2023/06/07 00:09:51;;;;;;;5.30;4.90;;;17.20;99.90;;;;;;5112976;28;20533;-71
2023/06/07 00:12:16;;;;;;;5.83;5.10;;;17.10;99.90;;;;;;5113230;28;20711;-71
2023/06/07 00:14:43;;;;;;;4.70;4.20;;;17.00;99.90;;;;;;5113504;28;20210;-71
2023/06/07 00:17:09;;;;;;;6.73;4.87;;;17.10;99.90;;;;;;5113498;28;20157;-71
2023/06/07 00:19:35;;;;;;;6.93;4.90;;;17.20;99.90;;;;;;5114244;28;20980;-71
2023/06/07 00:22:02;;;;;;;5.90;5.40;;;17.20;99.90;;;;;;5113399;28;20521;-71
2023/06/07 00:24:27;;;;;;;5.20;4.70;;;16.90;99.90;;;;;;5113964;28;20168;-72
2023/06/07 00:26:53;;;;;;;6.50;4.83;;;16.80;99.90;;;;;;5114803;28;20402;-71
2023/06/07 00:29:19;;;;;;;4.83;4.40;;;16.90;99.90;;;;;;5113430;28;20172;-71
2023/06/07 00:31:45;;;;;;;5.73;4.60;;;16.80;99.90;;;;;;5114645;28;20171;-71
2023/06/07 00:34:10;;;;;;;5.30;4.90;;;16.70;99.90;;;;;;5114967;28;20189;-71
2023/06/07 00:36:36;;;;;;;4.40;4.00;;;16.80;99.90;;;;;;5113585;28;20229;-71
2023/06/07 00:39:02;;;;;;;5.37;4.77;;;16.90;99.90;;;;;;5113023;28;20277;-71
2023/06/07 00:41:28;;;;;;;5.30;4.90;;;16.80;99.90;;;;;;5113397;28;20249;-71
2023/06/07 00:43:54;;;;;;;6.00;5.30;;;16.80;99.90;;;;;;5112877;28;20444;-71
2023/06/07 00:46:22;;;;;;;5.43;4.93;;;16.80;99.90;;;;;;5113454;28;20847;-71
2023/06/07 00:48:50;;;;;;;5.47;4.97;;;16.90;99.90;;;;;;5113491;28;20623;-71
2023/06/07 00:51:16;;;;;;;5.87;5.37;;;16.90;99.90;;;;;;5113425;28;20403;-71
2023/06/07 00:53:46;;;;;;;7.07;5.53;;;16.90;99.90;;;;;;5112925;28;20504;-71
2023/06/07 00:56:12;;;;;;;5.77;5.27;;;16.80;99.90;;;;;;5113409;28;20826;-71
2023/06/07 00:58:38;;;;;;;5.77;5.17;;;16.80;99.90;;;;;;5112849;28;20434;-71
2023/06/07 01:01:05;;;;;;;5.43;4.90;;;16.80;99.90;;;;;;5113477;28;20180;-71
2023/06/07 01:03:34;;;;;;;5.17;4.70;;;16.70;99.90;;;;;;5113334;28;20200;-71
2023/06/07 01:06:02;;;;;;;6.53;5.93;;;16.50;99.90;;;;;;5112887;28;20450;-71
2023/06/07 01:08:28;;;;;;;5.87;5.37;;;16.50;99.90;;;;;;5113209;28;20402;-71
2023/06/07 01:10:55;;;;;;;5.17;4.77;;;16.50;99.90;;;;;;5113282;28;20437;-71
2023/06/07 01:13:21;;;;;;;5.47;5.00;;;16.60;99.90;;;;;;5112630;28;20434;-71
2023/06/07 01:15:47;;;;;;;5.73;5.33;;;16.60;99.90;;;;;;5113429;28;20421;-71
2023/06/07 01:18:13;;;;;;;5.07;4.50;;;16.60;99.90;;;;;;5113172;28;20896;-71
2023/06/07 01:20:45;;;;;;;6.30;5.07;;;16.60;99.90;;;;;;5113543;28;20251;-71
2023/06/07 01:23:12;;;;;;;6.87;5.50;;;16.50;99.90;;;;;;5116676;28;20461;-71
2023/06/07 01:25:38;;;;;;;6.73;6.13;;;16.50;99.90;;;;;;5098511;28;20462;-71
2023/06/07 01:28:05;;;;;;;5.77;4.90;;;16.40;99.90;;;;;;5116662;28;20488;-71
2023/06/07 01:30:32;;;;;;;7.20;6.10;;;16.40;99.90;;;;;;5098067;28;20179;-71
2023/06/07 01:33:04;;;;;;;6.03;5.53;;;16.30;99.90;;;;;;5116988;28;20471;-71
2023/06/07 01:35:30;;;;;;;6.70;5.93;;;16.20;99.90;;;;;;5116551;28;20412;-71
2023/06/07 01:37:57;;;;;;;5.63;5.20;;;16.10;99.90;;;;;;5116481;28;20435;-71
2023/06/07 01:40:24;;;;;;;6.20;5.70;;;16.20;99.90;;;;;;5116638;28;20416;-71
2023/06/07 01:42:52;;;;;;;5.30;4.80;;;16.30;99.90;;;;;;5098229;28;20441;-71
2023/06/07 01:45:17;;;;;;;6.40;5.80;;;16.20;99.90;;;;;;5116012;28;20484;-71
2023/06/07 01:47:43;;;;;;;5.07;4.67;;;16.20;99.90;;;;;;5116605;28;20944;-71
2023/06/07 01:50:09;;;;;;;7.00;6.30;;;16.20;99.90;;;;;;5116221;28;20298;-71
2023/06/07 01:52:36;;;;;;;6.93;6.33;;;16.20;99.90;;;;;;5116067;28;20955;-71
2023/06/07 01:55:03;;;;;;;5.83;5.33;;;16.10;99.90;;;;;;5097837;28;20406;-71
2023/06/07 01:58:05;;;;;;;6.47;5.83;;;16.10;99.90;;;;;;5116309;28;20410;-71
2023/06/07 02:00:57;;;;;;;6.87;6.20;;;16.20;99.90;;;;;;5097945;28;20395;-71
2023/06/07 02:03:26;;;;;;;9.83;5.20;;;16.10;99.90;;;;;;5115957;28;20845;-71
2023/06/07 02:05:58;;;;;;;6.40;5.73;;;16.20;99.90;;;;;;5115857;28;20450;-72
2023/06/07 02:08:24;;;;;;;6.20;5.60;;;16.10;99.90;;;;;;5116441;28;20404;-72
2023/06/07 02:10:51;;;;;;;6.80;6.10;;;16.10;99.90;;;;;;5097404;28;20908;-71
2023/06/07 02:13:20;;;;;;;5.57;5.17;;;16.10;99.90;;;;;;5115163;28;20196;-70
2023/06/07 02:15:46;;;;;;;6.80;6.17;;;16.10;99.90;;;;;;5115684;28;20409;-72
2023/06/07 02:18:12;;;;;;;6.10;5.50;;;16.10;99.90;;;;;;5097471;28;20797;-72
2023/06/07 02:20:38;;;;;;;6.37;5.87;;;15.90;99.90;;;;;;5115641;28;20507;-72
2023/06/07 02:23:04;;;;;;;6.23;5.63;;;15.90;99.90;;;;;;5097177;28;20498;-71
2023/06/07 02:25:30;;;;;;;6.67;6.10;;;15.90;99.90;;;;;;5115837;28;21038;-71
2023/06/07 02:27:58;;;;;;;6.47;5.97;;;15.90;99.90;;;;;;5115887;28;20179;-71
2023/06/07 02:30:24;;;;;;;5.67;5.27;;;15.90;99.90;;;;;;5114992;28;20464;-71
2023/06/07 02:32:49;;;;;;;6.50;6.00;;;15.90;99.90;;;;;;5114969;28;20817;-71
2023/06/07 02:35:17;;;;;;;5.97;5.47;;;15.90;99.90;;;;;;5115417;28;20183;-71
2023/06/07 02:37:43;;;;;;;6.20;5.70;;;15.90;99.90;;;;;;5116432;28;20661;-71
2023/06/07 02:40:09;;;;;;;5.70;5.30;;;15.90;99.90;;;;;;5115262;28;20412;-71
2023/06/07 02:42:36;;;;;;;7.13;6.47;;;15.80;99.90;;;;;;5115431;28;20208;-71
2023/06/07 02:45:05;;;;;;;7.23;6.60;;;15.70;99.90;;;;;;5096405;28;20526;-71
2023/06/07 02:47:31;;;;;;;6.30;5.70;;;15.60;99.90;;;;;;5115160;28;20407;-71
2023/06/07 02:49:57;;;;;;;5.90;5.33;;;15.60;99.90;;;;;;5115392;28;20398;-71
2023/06/07 02:52:23;;;;;;;6.60;6.10;;;15.80;99.90;;;;;;5115271;28;20192;-71
2023/06/07 02:54:49;;;;;;;6.57;5.97;;;15.80;99.90;;;;;;5115344;28;20414;-71
2023/06/07 02:57:14;;;;;;;5.80;5.30;;;15.70;99.90;;;;;;5114861;28;20405;-71
2023/06/07 02:59:41;;;;;;;6.87;6.20;;;15.70;99.90;;;;;;5114592;28;20702;-71
2023/06/07 03:02:06;;;;;;;7.80;5.70;;;15.60;99.90;;;;;;5115212;28;20195;-71
2023/06/07 03:04:33;;;;;;;6.87;6.20;;;15.50;99.90;;;;;;5096494;28;20495;-71
2023/06/07 03:06:59;;;;;;;6.37;5.77;;;15.40;99.90;;;;;;5114758;28;20587;-71
2023/06/07 03:09:24;;;;;;;7.27;6.67;;;15.30;99.90;;;;;;5114886;28;20402;-71
2023/06/07 03:11:50;;;;;;;7.80;7.00;;;15.30;99.90;;;;;;5114454;28;20410;-70
2023/06/07 03:14:19;;;;;;;6.40;5.90;;;15.30;99.90;;;;;;5114155;28;20404;-70
2023/06/07 03:16:45;;;;;;;7.37;6.87;;;15.40;99.90;;;;;;5114421;28;20176;-70
2023/06/07 03:19:11;;;;;;;7.27;6.67;;;15.40;99.90;;;;;;5114437;28;20417;-70
2023/06/07 03:21:38;;;;;;;6.20;5.60;;;15.50;99.90;;;;;;5114681;28;20465;-71
2023/06/07 03:24:04;;;;;;;7.27;6.50;;;15.60;99.90;;;;;;5114268;28;20456;-71
2023/06/07 03:26:31;;;;;;;7.80;7.10;;;15.60;99.90;;;;;;5114128;28;20459;-70
2023/06/07 03:28:56;;;;;;;7.90;6.67;;;15.60;99.90;;;;;;5114123;28;20410;-70
2023/06/07 03:31:23;;;;;;;6.50;5.90;;;15.60;99.90;;;;;;5114380;28;20849;-71
2023/06/07 03:33:48;;;;;;;7.43;6.77;;;15.50;99.90;;;;;;5114615;28;20215;-71
2023/06/07 03:36:20;;;;;;;7.07;6.37;;;15.50;99.90;;;;;;5114399;28;20403;-70
2023/06/07 03:38:46;;;;;;;7.00;6.40;;;15.40;99.90;;;;;;5114224;28;20165;-71
2023/06/07 03:41:12;;;;;;;8.00;7.20;;;15.40;99.90;;;;;;5114209;28;20771;-70
2023/06/07 03:43:38;;;;;;;8.97;7.77;;;15.40;99.90;;;;;;5113635;28;20299;-70
2023/06/07 03:46:03;;;;;;;7.60;6.17;;;15.40;99.90;;;;;;5116140;28;20202;-70
2023/06/07 03:48:29;;;;;;;7.67;7.07;;;15.40;99.90;;;;;;5118180;28;20172;-71
2023/06/07 03:50:54;;;;;;;6.97;6.40;;;15.30;99.90;;;;;;5117160;28;20199;-71
2023/06/07 03:53:20;;;;;;;7.10;6.50;;;15.30;99.90;;;;;;5116995;28;20197;-70
2023/06/07 03:55:47;;;;;;;7.97;7.17;;;15.30;99.90;;;;;;5118929;28;20177;-71
2023/06/07 03:58:13;;;;;;;7.17;6.57;;;15.30;99.90;;;;;;5116067;28;20165;-70
2023/06/07 04:00:39;;;;;;;7.90;7.20;;;15.30;99.90;;;;;;5115094;28;20460;-70
2023/06/07 04:03:04;;;;;;;8.53;7.00;;;15.40;99.90;;;;;;5114090;28;20534;-70
2023/06/07 04:05:31;;;;;;;7.90;7.20;;;15.40;99.90;;;;;;5113710;28;20202;-70
2023/06/07 04:07:59;;;;;;;8.77;7.97;;;15.50;99.90;;;;;;5113959;28;20554;-70
2023/06/07 04:10:25;;;;;;;8.50;7.53;;;15.40;99.90;;;;;;5113893;28;20412;-71
2023/06/07 04:12:50;;;;;;;7.60;6.70;;;15.40;99.90;;;;;;5113648;28;20428;-71
2023/06/07 04:15:16;;;;;;;7.07;6.57;;;15.40;99.90;;;;;;5094912;28;20407;-70
2023/06/07 04:17:41;;;;;;;6.97;6.37;;;15.50;99.90;;;;;;5113502;28;20212;-70
2023/06/07 04:20:09;;;;;;;6.77;6.17;;;15.50;99.90;;;;;;5113531;28;20167;-70
2023/06/07 04:22:35;;;;;;;7.40;6.73;;;15.60;99.90;;;;;;5095337;28;20234;-70
2023/06/07 04:25:02;;;;;;;7.50;6.80;;;15.70;99.90;;;;;;5113685;28;20808;-69
2023/06/07 04:27:29;;;;;;;8.80;6.80;;;15.60;99.90;;;;;;5113521;28;20565;-70
2023/06/07 04:29:55;;;;;;;8.10;7.40;;;15.60;99.90;;;;;;5113006;28;20406;-69
2023/06/07 04:32:21;;;;;;;8.20;7.50;;;15.60;99.90;;;;;;5112845;28;20443;-69
2023/06/07 04:34:47;;;;;;;7.60;6.80;;;15.60;99.90;;;;;;5113727;28;20434;-70
2023/06/07 04:37:13;;;;;;;7.23;6.63;;;15.70;99.90;;;;;;5095207;28;20420;-69
2023/06/07 04:39:40;;;;;;;7.30;6.70;;;15.80;99.90;;;;;;5113221;28;20584;-69
2023/06/07 04:42:07;;;;;;;6.87;6.30;;;15.90;99.90;;;;;;5113732;28;20552;-70
2023/06/07 04:44:33;;;;;;;7.00;6.40;;;15.90;99.90;;;;;;5112711;28;20800;-69
2023/06/07 04:47:02;;;;;;;7.40;6.80;;;16.10;99.90;;;;;;5113250;28;20461;-70
2023/06/07 04:49:28;;;;;;;8.60;7.87;;;16.10;99.90;;;;;;5095026;28;20172;-70
2023/06/07 04:51:55;;;;;;;6.20;5.80;;;16.20;99.90;;;;;;5113179;28;20416;-70
2023/06/07 04:54:20;;;;;;;7.70;7.10;;;16.30;99.90;;;;;;5113197;28;20170;-70
2023/06/07 04:56:46;;;;;;;5.83;5.33;;;16.30;99.90;;;;;;5116320;28;20449;-70
2023/06/07 04:59:14;;;;;;;6.80;6.20;;;16.30;99.90;;;;;;5099753;28;20178;-70
2023/06/07 05:01:41;;;;;;;7.03;6.23;;;16.40;99.90;;;;;;5118378;28;20890;-71
2023/06/07 05:04:07;;;;;;;7.33;6.63;;;16.50;99.90;;;;;;5116828;28;20767;-71
2023/06/07 05:06:37;;;;;;;7.60;6.90;;;16.60;99.90;;;;;;5117522;28;20485;-71
2023/06/07 05:09:06;;;;;;;7.63;6.93;;;16.60;99.90;;;;;;5117462;28;20774;-71
2023/06/07 05:11:32;;;;;;;7.20;6.50;;;16.70;99.90;;;;;;5117304;28;20452;-71
2023/06/07 05:13:58;;;;;;;6.93;6.43;;;16.80;99.90;;;;;;5116615;28;20410;-70
2023/06/07 05:16:24;;;;;;;7.73;6.93;;;16.90;99.90;;;;;;5098791;28;20267;-70
2023/06/07 05:18:50;;;;;;;8.23;6.63;;;17.00;99.90;;;;;;5116858;28;20187;-70
2023/06/07 05:21:16;;;;;;;8.03;7.33;;;17.10;99.90;;;;;;5116796;28;20414;-70
2023/06/07 05:23:43;;;;;;;7.83;7.13;;;17.20;99.90;;;;;;5130186;22;20493;-67
2023/06/07 05:26:08;;;;;;;11.33;9.00;;;17.30;99.90;;;;;;5116514;28;20453;-70
2023/06/07 05:28:35;;;;;;;9.90;8.90;;;17.20;99.90;;;;;;5116449;28;20459;-69
2023/06/07 05:31:01;;;;;;;8.10;7.40;;;17.30;99.90;;;;;;5097978;28;20168;-69
2023/06/07 05:33:30;;;;;;;9.87;8.67;;;17.30;99.90;;;;;;5116648;28;20418;-69
2023/06/07 05:35:56;;;;;;;7.83;7.13;;;17.40;99.90;;;;;;5116525;28;20641;-70
2023/06/07 05:38:22;;;;;;;8.70;7.90;;;17.50;99.90;;;;;;5117074;28;20394;-69
2023/06/07 05:40:48;;;;;;;9.20;8.37;;;17.70;99.90;;;;;;5116523;28;20176;-69
2023/06/07 05:43:13;;;;;;;9.60;8.80;;;17.90;99.90;;;;;;5117098;28;20207;-70
2023/06/07 05:45:40;;;;;;;9.80;8.90;;;17.70;99.90;;;;;;5115911;28;20207;-70
2023/06/07 05:48:06;;;;;;;8.90;8.00;;;17.70;99.90;;;;;;5116637;28;20206;-70
2023/06/07 05:50:32;;;;;;;35.70;28.27;;;17.90;99.90;;;;;;5116704;28;20489;-69
2023/06/07 05:52:58;;;;;;;9.40;8.50;;;17.90;99.90;;;;;;5116545;28;20278;-69
2023/06/07 05:55:25;;;;;;;10.17;9.20;;;17.90;99.90;;;;;;5116727;28;20161;-69
2023/06/07 05:57:51;;;;;;;10.10;9.10;;;18.00;99.90;;;;;;5116424;28;20438;-69
2023/06/07 06:00:17;;;;;;;9.40;8.73;;;18.10;99.90;;;;;;5115552;28;20455;-69
2023/06/07 06:02:45;;;;;;;9.23;8.50;;;18.10;99.90;;;;;;5115913;28;20988;-69
2023/06/07 06:05:11;;;;;;;8.47;7.77;;;18.00;99.90;;;;;;5116132;28;20846;-69
2023/06/07 06:07:37;;;;;;;9.70;8.83;;;18.20;99.90;;;;;;5115121;28;20520;-69
2023/06/07 06:10:04;;;;;;;10.03;9.20;;;18.10;99.90;;;;;;5116021;28;20481;-69
2023/06/07 06:12:30;;;;;;;10.70;9.73;;;18.10;99.90;;;;;;5098048;28;20189;-69
2023/06/07 06:14:56;;;;;;;11.93;10.83;;;18.30;99.90;;;;;;5115706;28;20804;-69
2023/06/07 06:17:22;;;;;;;10.60;9.50;;;18.30;99.90;;;;;;5116093;28;20417;-69
2023/06/07 06:19:47;;;;;;;10.37;9.30;;;18.00;99.90;;;;;;5115879;28;20164;-69
2023/06/07 06:22:13;;;;;;;11.60;10.50;;;17.70;99.90;;;;;;5115518;28;20502;-69
2023/06/07 06:24:39;;;;;;;12.10;11.00;;;17.80;99.90;;;;;;5116185;28;20172;-68
2023/06/07 06:27:06;;;;;;;10.70;9.67;;;17.80;99.90;;;;;;5115824;28;20180;-69
2023/06/07 06:29:32;;;;;;;9.87;9.07;;;17.90;99.90;;;;;;5114874;28;20703;-69
2023/06/07 06:31:57;;;;;;;10.63;9.63;;;18.10;99.90;;;;;;5115619;28;20398;-69
2023/06/07 06:34:24;;;;;;;11.10;10.17;;;18.10;99.90;;;;;;5115327;28;20452;-69
2023/06/07 06:36:49;;;;;;;12.43;9.63;;;18.10;99.90;;;;;;5115827;28;20165;-69
2023/06/07 06:39:15;;;;;;;9.57;8.73;;;18.20;99.90;;;;;;5115494;28;20402;-69
2023/06/07 06:41:41;;;;;;;10.43;9.00;;;18.40;99.90;;;;;;5115259;28;20634;-69
2023/06/07 06:44:06;;;;;;;8.90;7.97;;;18.60;99.90;;;;;;5114724;28;20271;-68
2023/06/07 06:46:32;;;;;;;9.30;8.60;;;18.70;99.90;;;;;;5115216;28;20204;-69
2023/06/07 06:48:57;;;;;;;8.20;7.60;;;18.70;99.90;;;;;;5115184;28;20232;-69
2023/06/07 06:51:23;;;;;;;8.00;7.30;;;18.90;99.90;;;;;;5115198;28;20176;-69
2023/06/07 06:53:48;;;;;;;8.37;7.67;;;19.10;99.90;;;;;;5115009;28;20188;-69
2023/06/07 06:56:14;;;;;;;7.90;7.20;;;18.90;99.90;;;;;;5114769;28;20205;-69
2023/06/07 06:58:40;;;;;;;9.47;8.57;;;19.20;99.90;;;;;;5114169;28;20177;-68
2023/06/07 07:01:07;;;;;;;8.20;7.50;;;19.00;99.90;;;;;;5114843;28;20204;-69
2023/06/07 07:03:32;;;;;;;9.17;8.20;;;18.90;99.90;;;;;;5114878;28;20431;-69
2023/06/07 07:05:58;;;;;;;9.30;8.40;;;18.70;99.90;;;;;;5114590;28;20795;-68
2023/06/07 07:08:25;;;;;;;9.73;8.97;;;18.60;99.90;;;;;;5115130;28;20168;-68
2023/06/07 07:10:51;;;;;;;8.77;8.07;;;18.90;99.90;;;;;;5114549;28;20240;-68
2023/06/07 07:13:16;;;;;;;7.90;7.20;;;19.20;99.90;;;;;;5114696;28;20422;-68
2023/06/07 07:15:42;;;;;;;10.00;9.00;;;19.10;99.90;;;;;;5114048;28;20409;-68
2023/06/07 07:18:08;;;;;;;7.23;6.63;;;18.80;99.90;;;;;;5114562;28;20208;-68
2023/06/07 07:20:33;;;;;;;6.73;5.97;;;18.80;99.90;;;;;;5115229;28;20188;-68
2023/06/07 07:23:01;;;;;;;13.37;7.20;;;19.10;99.90;;;;;;5114889;28;20652;-68
2023/06/07 07:25:28;;;;;;;7.53;6.90;;;19.60;99.90;;;;;;5114309;28;20450;-68
2023/06/07 07:27:54;;;;;;;8.67;6.20;;;19.80;99.90;;;;;;5114612;28;20413;-68
2023/06/07 07:30:20;;;;;;;8.13;6.50;;;20.00;99.90;;;;;;5114030;28;20493;-69
2023/06/07 07:32:45;;;;;;;11.83;6.80;;;20.10;99.90;;;;;;5114682;28;20203;-68
2023/06/07 07:35:11;;;;;;;8.67;7.17;;;20.30;99.90;;;;;;5114396;28;20172;-68
2023/06/07 07:37:38;;;;;;;9.63;7.40;;;20.20;99.90;;;;;;5114379;28;20249;-70
2023/06/07 07:40:08;;;;;;;10.17;7.13;;;20.10;99.90;;;;;;5114153;28;20179;-72
2023/06/07 07:42:34;;;;;;;6.57;5.97;;;20.00;99.90;;;;;;5114543;28;20464;-68
2023/06/07 07:45:00;;;;;;;6.80;6.20;;;20.00;99.90;;;;;;5113756;28;20936;-68
2023/06/07 07:47:25;;;;;;;6.97;5.60;;;20.10;99.90;;;;;;5113933;28;20409;-68
2023/06/07 07:49:55;;;;;;;6.80;5.20;;;20.30;99.90;;;;;;5114217;28;20169;-68
2023/06/07 07:52:20;;;;;;;4.40;4.00;;;20.50;99.90;;;;;;5114125;28;20204;-68
2023/06/07 07:54:47;;;;;;;4.73;4.30;;;20.40;99.90;;;;;;5114294;28;20754;-68
2023/06/07 07:57:12;;;;;;;5.17;4.40;;;20.00;99.90;;;;;;5113761;28;20243;-68
2023/06/07 07:59:38;;;;;;;4.80;4.33;;;19.60;99.90;;;;;;5113469;28;20892;-68
2023/06/07 08:02:04;;;;;;;5.53;4.83;;;19.70;99.90;;;;;;5113916;28;20252;-68
2023/06/07 08:04:30;;;;;;;4.40;3.90;;;19.60;99.90;;;;;;5113652;28;20562;-68
2023/06/07 08:06:55;;;;;;;5.10;4.30;;;19.80;99.90;;;;;;5113642;28;20211;-68
2023/06/07 08:09:21;;;;;;;4.77;4.30;;;20.00;99.90;;;;;;5113639;28;20402;-68
2023/06/07 08:11:47;;;;;;;4.93;4.40;;;20.50;99.90;;;;;;5113816;28;20173;-68
2023/06/07 08:14:14;;;;;;;4.83;3.47;;;20.70;99.90;;;;;;5113221;28;20734;-68
2023/06/07 08:16:39;;;;;;;4.60;4.20;;;20.60;99.90;;;;;;5113690;28;20904;-68
2023/06/07 08:19:07;;;;;;;4.33;3.93;;;20.80;99.90;;;;;;5113872;28;20409;-68
2023/06/07 08:21:33;;;;;;;4.73;4.30;;;20.90;99.90;;;;;;5114018;28;20219;-68
2023/06/07 08:23:59;;;;;;;5.60;5.03;;;20.90;99.90;;;;;;5113489;28;20978;-68
2023/06/07 08:26:25;;;;;;;4.77;4.23;;;20.80;99.90;;;;;;5113327;28;20450;-68
2023/06/07 08:28:50;;;;;;;6.27;3.83;;;21.00;99.90;;;;;;5113303;28;20551;-68
2023/06/07 08:31:17;;;;;;;4.47;4.07;;;21.30;99.90;;;;;;5111743;28;20164;-68
2023/06/07 08:33:43;;;;;;;4.90;3.87;;;21.70;99.90;;;;;;5113577;28;20539;-68
2023/06/07 08:36:09;;;;;;;4.27;3.97;;;21.70;99.90;;;;;;5113216;28;20398;-68
2023/06/07 08:38:37;;;;;;;3.63;3.23;;;21.50;99.90;;;;;;5113353;28;20173;-68
2023/06/07 08:41:03;;;;;;;4.40;4.00;;;21.30;99.90;;;;;;5113561;28;20654;-68
2023/06/07 08:43:29;;;;;;;4.43;4.03;;;21.20;99.90;;;;;;5113354;28;20434;-68
2023/06/07 08:45:56;;;;;;;4.07;3.77;;;21.30;99.90;;;;;;5112612;28;20192;-68
2023/06/07 08:48:22;;;;;;;3.80;3.50;;;21.50;99.90;;;;;;5113123;28;20172;-68
2023/06/07 08:50:51;;;;;;;3.90;3.40;;;21.60;99.90;;;;;;5113121;28;20903;-68
2023/06/07 08:53:27;;;;;;;4.27;3.87;;;21.50;99.90;;;;;;5113467;28;20505;-68
2023/06/07 08:55:54;;;;;;;3.60;3.23;;;21.50;99.90;;;;;;5113407;28;20427;-68
2023/06/07 08:58:24;;;;;;;3.37;3.17;;;21.50;99.90;;;;;;5112754;28;20479;-68
2023/06/07 09:00:51;;;;;;;3.50;3.20;;;21.70;99.90;;;;;;5112572;28;20413;-68
2023/06/07 09:03:16;;;;;;;4.80;3.43;;;21.70;99.90;;;;;;5113343;28;20986;-68
2023/06/07 09:05:43;;;;;;;3.83;3.40;;;21.70;99.90;;;;;;5112887;28;20450;-68
2023/06/07 09:08:08;;;;;;;2.70;2.50;;;21.70;99.90;;;;;;5113006;28;20196;-68
2023/06/07 09:10:34;;;;;;;2.60;2.40;;;21.60;99.90;;;;;;5113213;28;20426;-68
2023/06/07 09:12:59;;;;;;;5.60;3.63;;;21.80;99.90;;;;;;5113089;28;20193;-68
2023/06/07 09:15:27;;;;;;;2.90;2.70;;;21.90;99.90;;;;;;5112449;28;20179;-68
2023/06/07 09:18:01;;;;;;;4.30;3.10;;;22.00;99.90;;;;;;5113122;28;20161;-68
2023/06/07 09:20:28;;;;;;;3.40;3.10;;;22.10;99.90;;;;;;5112933;28;20386;-68
2023/06/07 09:23:16;;;;;;;2.87;2.60;;;22.30;99.90;;;;;;5112779;28;20485;-68
2023/06/07 09:25:45;;;;;;;3.77;3.40;;;22.30;99.90;;;;;;5112793;28;20948;-68
2023/06/07 09:28:12;;;;;;;3.27;2.97;;;22.10;99.90;;;;;;5112772;28;20413;-68
2023/06/07 09:30:55;;;;;;;5.17;3.13;;;22.40;99.90;;;;;;5112341;28;20438;-68
2023/06/07 09:33:33;;;;;;;3.30;3.00;;;22.80;99.90;;;;;;5113048;28;20429;-68
2023/06/07 09:36:10;;;;;;;3.03;2.70;;;22.70;99.40;;;;;;5113132;28;20864;-67
2023/06/07 09:38:36;;;;;;;2.90;2.53;;;22.80;98.90;;;;;;5113357;28;20465;-68
2023/06/07 09:41:04;;;;;;;2.97;2.77;;;23.20;98.10;;;;;;5113230;28;20487;-68
2023/06/07 09:43:46;;;;;;;2.77;2.57;;;23.50;97.00;;;;;;5116475;28;20200;-68
2023/06/07 09:46:12;;;;;;;2.87;2.67;;;23.40;97.70;;;;;;5116037;28;20948;-68
2023/06/07 09:48:50;;;;;;;3.00;2.80;;;23.80;97.60;;;;;;5116493;28;20407;-68
2023/06/07 09:51:16;;;;;;;3.60;3.10;;;23.30;98.30;;;;;;5116328;28;20406;-68
2023/06/07 09:53:50;;;;;;;2.63;2.43;;;23.20;98.40;;;;;;5116591;28;20431;-68
2023/06/07 09:56:22;;;;;;;2.97;2.73;;;23.20;98.70;;;;;;5116282;28;20490;-68
2023/06/07 09:58:49;;;;;;;3.00;2.47;;;23.50;98.20;;;;;;5117376;28;20410;-68
2023/06/07 10:01:37;;;;;;;2.77;2.57;;;23.70;97.90;;;;;;5119024;28;20447;-68
2023/06/07 10:04:07;;;;;;;2.67;2.33;;;23.30;98.00;;;;;;5117441;28;20920;-68
2023/06/07 10:06:33;;;;;;;2.43;2.23;;;23.60;98.60;;;;;;5117715;28;20807;-68
2023/06/07 10:09:03;;;;;;;2.43;2.27;;;23.80;97.80;;;;;;5118012;28;20397;-68
2023/06/07 10:11:31;;;;;;;3.10;2.60;;;23.70;97.60;;;;;;5117248;28;20398;-67
2023/06/07 10:14:03;;;;;;;2.70;2.17;;;23.70;97.80;;;;;;5117449;28;20426;-68
2023/06/07 10:16:33;;;;;;;2.20;2.00;;;23.70;97.70;;;;;;5116415;28;20399;-68
2023/06/07 10:19:07;;;;;;;3.67;2.57;;;24.20;98.00;;;;;;5116871;28;20399;-68
2023/06/07 10:21:34;;;;;;;3.77;2.30;;;24.20;96.20;;;;;;5117385;28;20386;-68
2023/06/07 10:24:07;;;;;;;2.60;2.40;;;24.20;96.30;;;;;;5116493;28;20438;-68
2023/06/07 10:26:53;;;;;;;2.33;2.20;;;23.80;95.90;;;;;;5116539;28;20431;-68
2023/06/07 10:29:31;;;;;;;2.63;2.43;;;24.10;96.00;;;;;;5116330;28;20500;-68
2023/06/07 10:32:12;;;;;;;3.33;2.40;;;24.70;95.80;;;;;;5115676;28;20395;-68
2023/06/07 10:34:38;;;;;;;2.33;2.13;;;25.60;95.00;;;;;;5115962;28;20477;-68
2023/06/07 10:37:07;;;;;;;2.73;2.23;;;26.00;93.00;;;;;;5115487;28;20414;-68
2023/06/07 10:39:34;;;;;;;3.10;2.47;;;26.20;93.10;;;;;;5116291;28;20410;-68
2023/06/07 10:42:00;;;;;;;2.30;2.10;;;26.20;92.80;;;;;;5115982;28;20446;-68
2023/06/07 10:44:25;;;;;;;2.50;2.13;;;26.00;92.20;;;;;;5115836;28;20420;-68
2023/06/07 10:47:27;;;;;;;2.70;2.50;;;25.30;93.50;;;;;;5115597;28;20565;-68
2023/06/07 10:49:53;;;;;;;2.93;2.60;;;24.90;94.20;;;;;;5102566;28;20236;-66
2023/06/07 10:52:19;;;;;;;2.83;2.50;;;24.60;94.30;;;;;;5115125;28;20426;-65
2023/06/07 10:54:45;;;;;;;2.60;2.40;;;24.40;95.10;;;;;;5114645;28;20410;-65
2023/06/07 10:57:11;;;;;;;2.97;2.53;;;24.30;94.60;;;;;;5114984;28;20893;-65
2023/06/07 10:59:38;;;;;;;5.83;2.67;;;24.10;94.00;;;;;;5115383;28;20165;-65
2023/06/07 11:02:29;;;;;;;4.07;2.30;;;24.00;95.00;;;;;;5114687;28;20402;-66
2023/06/07 11:04:59;;;;;;;3.70;2.40;;;24.40;95.00;;;;;;5115502;28;20899;-65
2023/06/07 11:07:32;;;;;;;2.90;2.70;;;24.70;93.60;;;;;;5115237;28;20383;-65
2023/06/07 11:10:10;;;;;;;3.30;2.63;;;25.20;92.50;;;;;;5113625;28;20402;-65
2023/06/07 11:12:40;;;;;;;3.47;2.93;;;25.30;91.70;;;;;;5114414;28;20546;-65
2023/06/07 11:15:20;;;;;;;4.13;2.60;;;25.40;92.70;;;;;;5114416;28;20912;-66
2023/06/07 11:17:53;;;;;;;3.07;2.87;;;25.80;92.80;;;;;;5114815;28;20434;-65
2023/06/07 11:20:37;;;;;;;2.87;2.40;;;25.60;91.80;;;;;;5114581;28;20738;-65
2023/06/07 11:23:27;;;;;;;2.83;2.63;;;25.10;92.90;;;;;;5133416;22;20912;-68
2023/06/07 11:26:05;;;;;;;2.50;2.30;;;25.60;93.20;;;;;;5093669;28;20451;-67
2023/06/07 11:28:32;;;;;;;5.30;2.20;;;26.20;92.00;;;;;;5093644;28;20975;-67
2023/06/07 11:30:59;;;;;;;2.60;2.40;;;27.10;90.10;;;;;;5093556;28;20436;-68
2023/06/07 11:33:25;;;;;;;2.47;2.27;;;27.00;90.40;;;;;;5093641;28;20420;-68
2023/06/07 11:35:52;;;;;;;3.97;2.27;;;27.10;90.60;;;;;;5093946;28;20403;-68
2023/06/07 11:38:18;;;;;;;2.43;2.23;;;27.20;90.20;;;;;;5093787;28;20510;-68
2023/06/07 11:40:45;;;;;;;2.73;2.53;;;28.50;86.00;;;;;;5093828;28;20465;-67
2023/06/07 11:43:19;;;;;;;2.80;2.53;;;30.50;81.10;;;;;;5079061;28;20439;-68
2023/06/07 11:45:45;;;;;;;2.80;2.20;;;30.10;77.60;;;;;;5054830;28;20436;-68
2023/06/07 11:48:11;;;;;;;2.70;2.50;;;28.70;78.80;;;;;;5073675;28;20478;-69
2023/06/07 11:50:37;;;;;;;3.37;1.90;;;27.30;81.60;;;;;;5075820;28;20201;-70
2023/06/07 11:53:03;;;;;;;2.80;2.30;;;26.70;84.20;;;;;;5074263;28;20208;-70
2023/06/07 11:55:30;;;;;;;2.50;2.30;;;26.20;86.00;;;;;;5073333;28;20914;-71
2023/06/07 11:57:59;;;;;;;2.70;2.27;;;26.80;84.30;;;;;;5073384;28;20486;-71
2023/06/07 12:00:25;;;;;;;2.50;2.30;;;28.10;82.50;;;;;;5072658;28;20400;-71
2023/06/07 12:02:52;;;;;;;2.10;2.00;;;29.50;78.10;;;;;;5072826;28;20416;-71
2023/06/07 12:05:19;;;;;;;3.13;2.17;;;29.30;77.00;;;;;;5071869;28;20505;-71
2023/06/07 12:07:54;;;;;;;2.23;2.03;;;27.70;80.60;;;;;;5073244;28;20491;-71
2023/06/07 12:10:27;;;;;;;2.23;1.97;;;27.50;80.80;;;;;;5072906;28;20388;-70
2023/06/07 12:13:21;;;;;;;2.93;2.10;;;29.30;76.30;;;;;;5073231;28;20412;-71
2023/06/07 12:15:56;;;;;;;2.20;2.00;;;31.80;68.40;;;;;;5072337;28;20496;-71
2023/06/07 12:18:29;;;;;;;3.50;2.00;;;33.20;61.80;;;;;;5073008;28;20807;-70
2023/06/07 12:21:08;;;;;;;2.13;1.83;;;31.90;62.80;;;;;;5073023;28;20823;-70
2023/06/07 12:23:36;;;;;;;2.10;1.90;;;33.00;63.30;;;;;;5072727;28;20500;-71
2023/06/07 12:26:09;;;;;;;2.13;1.93;;;32.50;64.50;;;;;;5072622;28;20448;-71
2023/06/07 12:28:35;;;;;;;1.87;1.77;;;33.70;61.20;;;;;;5072659;28;20400;-71
2023/06/07 12:31:00;;;;;;;2.17;1.90;;;32.20;62.20;;;;;;5069754;28;20396;-71
2023/06/07 12:33:27;;;;;;;2.03;1.93;;;32.00;64.10;;;;;;5072613;28;20235;-71
2023/06/07 12:35:53;;;;;;;2.23;1.77;;;32.20;62.80;;;;;;5072552;28;20193;-71
2023/06/07 12:38:22;;;;;;;3.83;2.00;;;32.00;62.90;;;;;;5072911;28;20834;-70
2023/06/07 12:40:47;;;;;;;1.83;1.73;;;32.00;61.30;;;;;;5072394;28;20894;-71
2023/06/07 12:43:13;;;;;;;1.63;1.50;;;32.00;59.40;;;;;;5072434;28;20451;-71
2023/06/07 12:45:38;;;;;;;2.07;1.87;;;31.70;60.20;;;;;;5072300;28;20235;-71
2023/06/07 12:48:05;;;;;;;4.13;2.33;;;31.20;60.00;;;;;;5072647;28;20198;-70